Time;durP1;ratioP1;P1;durP2;ratioP2;P2;SDS_P1;SDS_P2;PMS_P1;PMS_P2;Temp;Humidity;BMP_temperature;BMP_pressure;BME280_temperature;BME280_humidity;BME280_pressure;Samples;Min_cycle;Max_cycle;Signal;HPM_P1;HPM_P2
2023/09/12 00:00:18;;;;;;;41.97;25.60;;;;;;;-146.27;84.91;80624.88;5043706;28;20021;-69
2023/09/12 00:02:44;;;;;;;43.58;26.50;;;;;;;-146.27;84.33;80576.66;5042183;28;20063;-69
2023/09/12 00:05:09;;;;;;;44.80;25.88;;;;;;;-146.27;84.07;80584.69;5046555;28;20025;-69
2023/09/12 00:07:36;;;;;;;40.90;25.27;;;;;;;-146.27;85.12;80632.91;5035489;28;20074;-70
2023/09/12 00:10:02;;;;;;;48.15;26.98;;;;;;;-146.27;84.81;80600.75;5046431;28;20056;-70
2023/09/12 00:12:28;;;;;;;45.28;26.23;;;;;;;-146.27;84.99;80632.91;5043795;28;21685;-69
2023/09/12 00:14:54;;;;;;;48.00;26.15;;;;;;;-146.27;85.09;80652.97;5045771;28;20115;-69
2023/09/12 00:17:19;;;;;;;51.17;27.25;;;;;;;-146.27;84.91;80620.84;5044270;28;20123;-69
2023/09/12 00:19:45;;;;;;;49.47;27.67;;;;;;;-146.27;85.42;80665.03;5036326;28;20075;-69
2023/09/12 00:22:10;;;;;;;42.08;25.10;;;;;;;-146.27;84.86;80654.97;5047166;28;20033;-69
2023/09/12 00:24:36;;;;;;;39.55;24.85;;;;;;;-146.27;84.20;80695.13;5050350;28;20020;-69
2023/09/12 00:27:04;;;;;;;39.40;24.65;;;;;;;-146.27;84.85;80665.03;5041485;28;20098;-69
2023/09/12 00:29:30;;;;;;;50.65;26.83;;;;;;;-146.27;84.29;80665.03;5042940;28;20056;-70
2023/09/12 00:31:55;;;;;;;50.25;28.50;;;;;;;-146.27;84.35;80673.06;5045551;28;20645;-69
2023/09/12 00:34:20;;;;;;;49.30;27.58;;;;;;;-146.27;84.69;80673.06;5039786;28;20021;-69
2023/09/12 00:36:46;;;;;;;45.65;26.92;;;;;;;-146.27;84.32;80681.09;5042288;28;20040;-69
2023/09/12 00:39:11;;;;;;;50.95;28.40;;;;;;;-146.27;85.13;80711.19;5038416;28;20029;-69
2023/09/12 00:41:36;;;;;;;46.03;27.35;;;;;;;-146.27;85.27;80697.16;5039171;28;20028;-70
2023/09/12 00:44:02;;;;;;;48.42;27.50;;;;;;;-146.27;84.77;80713.22;5036583;28;20669;-70
2023/09/12 00:46:28;;;;;;;54.28;29.58;;;;;;;-146.27;85.26;80723.25;5044999;28;20097;-70
2023/09/12 00:48:55;;;;;;;53.00;28.92;;;;;;;-146.27;85.37;80731.28;5044265;28;20033;-68
2023/09/12 00:51:21;;;;;;;53.35;29.55;;;;;;;-146.27;85.78;80741.31;5044986;28;20029;-70
2023/09/12 00:53:47;;;;;;;51.80;28.73;;;;;;;-146.27;85.13;80705.19;5049056;28;20036;-70
2023/09/12 00:56:13;;;;;;;48.85;27.42;;;;;;;-146.27;84.28;80703.16;5049251;28;20112;-70
2023/09/12 00:58:39;;;;;;;49.40;27.65;;;;;;;-146.27;85.60;80719.22;5048610;28;20096;-70
2023/09/12 01:01:04;;;;;;;54.33;28.83;;;;;;;-146.27;84.86;80713.22;5045359;28;20099;-70
2023/09/12 01:03:30;;;;;;;52.70;28.20;;;;;;;-146.27;84.12;80747.34;5040283;28;20119;-70
2023/09/12 01:05:57;;;;;;;48.35;26.05;;;;;;;-146.27;84.33;80751.38;5050793;28;20390;-70
2023/09/12 01:08:23;;;;;;;51.10;29.40;;;;;;;-146.27;84.03;80741.31;5049150;28;20036;-71
2023/09/12 01:10:50;;;;;;;63.17;29.23;;;;;;;-146.27;85.59;80729.28;5043471;28;20043;-70
2023/09/12 01:13:16;;;;;;;52.92;27.42;;;;;;;-146.27;84.34;80735.31;5047014;28;20031;-70
2023/09/12 01:15:42;;;;;;;54.65;29.05;;;;;;;-146.27;84.14;80705.19;5038544;28;20049;-70
2023/09/12 01:18:08;;;;;;;52.47;27.55;;;;;;;-146.27;84.03;80725.25;5047556;28;20614;-70
2023/09/12 01:20:36;;;;;;;52.78;27.05;;;;;;;-146.27;84.23;80773.44;5042037;28;20032;-69
2023/09/12 01:23:31;;;;;;;48.22;24.88;;;;;;;-146.27;85.07;80781.47;5046703;28;20063;-69
2023/09/12 01:26:16;;;;;;;47.10;25.23;;;;;;;-146.27;84.65;80787.50;5051525;28;20020;-69
2023/09/12 01:28:44;;;;;;;48.35;26.45;;;;;;;-146.27;84.68;80759.41;5048032;28;20035;-69
2023/09/12 01:31:11;;;;;;;46.45;25.05;;;;;;;-146.27;85.10;80773.44;5046275;28;20033;-70
2023/09/12 01:33:36;;;;;;;53.75;27.25;;;;;;;-146.27;85.29;80781.47;5041958;28;21160;-70
2023/09/12 01:36:02;;;;;;;49.65;25.60;;;;;;;-146.27;84.98;80811.59;5042699;28;20021;-70
2023/09/12 01:38:28;;;;;;;46.95;24.98;;;;;;;-146.27;85.20;80813.59;5047516;28;20035;-69
2023/09/12 01:40:55;;;;;;;50.22;25.67;;;;;;;-146.27;84.26;80799.56;5049544;28;20021;-70
2023/09/12 01:43:23;;;;;;;45.15;23.55;;;;;;;-146.27;85.59;80829.69;5051227;28;20094;-70
2023/09/12 01:45:52;;;;;;;44.53;24.35;;;;;;;-146.27;84.63;80817.63;5059223;28;20024;-70
2023/09/12 01:48:21;;;;;;;37.47;21.38;;;;;;;-146.27;84.35;80861.81;5046615;28;20083;-70
2023/09/12 01:50:48;;;;;;;41.35;21.90;;;;;;;-146.27;84.02;80857.78;5049690;28;20021;-70
2023/09/12 01:53:16;;;;;;;39.53;21.10;;;;;;;-146.27;84.50;80889.91;5044706;28;20028;-69
2023/09/12 01:55:44;;;;;;;41.70;22.10;;;;;;;-146.27;84.80;80922.03;5050514;28;20104;-69
2023/09/12 01:58:10;;;;;;;44.40;22.23;;;;;;;-146.27;84.96;80859.78;5040378;28;20026;-69
2023/09/12 02:00:36;;;;;;;36.50;20.00;;;;;;;-146.27;84.56;80843.72;5045251;28;20112;-70
2023/09/12 02:03:01;;;;;;;35.75;20.63;;;;;;;-146.27;84.44;80960.19;5033349;28;20182;-69
2023/09/12 02:05:27;;;;;;;39.97;20.25;;;;;;;-146.27;83.91;80893.94;5047331;28;20025;-68
2023/09/12 02:07:52;;;;;;;37.42;20.52;;;;;;;-146.27;84.96;80901.97;5044645;28;20441;-67
2023/09/12 02:10:18;;;;;;;37.65;20.48;;;;;;;-146.27;84.58;80918.03;5045957;28;20159;-69
2023/09/12 02:12:43;;;;;;;33.25;19.27;;;;;;;-146.27;84.76;80877.88;5047210;28;20021;-68
2023/09/12 02:15:09;;;;;;;34.75;19.58;;;;;;;-146.27;84.89;80946.13;5047588;28;20097;-68
2023/09/12 02:17:34;;;;;;;34.08;18.63;;;;;;;-146.27;84.75;80897.94;5036041;28;20137;-68
2023/09/12 02:20:00;;;;;;;37.60;20.05;;;;;;;-146.27;84.39;80934.09;5049308;28;20598;-69
2023/09/12 02:22:25;;;;;;;42.70;21.15;;;;;;;-146.27;85.59;80930.06;5050552;28;20029;-68
2023/09/12 02:24:51;;;;;;;39.78;20.30;;;;;;;-146.27;84.87;80905.97;5045596;28;20127;-69
2023/09/12 02:27:16;;;;;;;40.42;20.27;;;;;;;-146.27;84.56;80958.19;5047888;28;20389;-68
2023/09/12 02:29:42;;;;;;;33.55;18.63;;;;;;;-146.27;84.67;80936.09;5044280;28;20029;-69
2023/09/12 02:32:08;;;;;;;35.40;19.30;;;;;;;-146.27;83.76;80962.22;5047183;28;20032;-68
2023/09/12 02:34:34;;;;;;;33.60;19.08;;;;;;;-146.27;83.52;80956.19;5043896;28;20029;-68
2023/09/12 02:37:00;;;;;;;35.05;18.42;;;;;;;-146.27;84.10;81018.44;5043068;28;20108;-68
2023/09/12 02:39:25;;;;;;;32.97;18.20;;;;;;;-146.27;84.23;81004.38;5047936;28;20039;-67
2023/09/12 02:41:51;;;;;;;33.03;19.88;;;;;;;-146.27;84.99;81028.47;5039083;28;20036;-68
2023/09/12 02:44:16;;;;;;;34.50;19.98;;;;;;;-146.27;85.50;81018.44;5048782;28;20025;-68
2023/09/12 02:46:42;;;;;;;36.63;20.38;;;;;;;-146.27;85.44;81002.38;5045421;28;20021;-68
2023/09/12 02:49:07;;;;;;;33.38;18.92;;;;;;;-146.27;84.66;80978.28;5045905;28;20076;-69
2023/09/12 02:51:33;;;;;;;35.88;20.65;;;;;;;-146.27;85.65;81018.44;5045380;28;20032;-68
2023/09/12 02:53:58;;;;;;;30.15;17.35;;;;;;;-146.27;85.73;81006.38;5044470;28;20404;-68
2023/09/12 02:56:24;;;;;;;36.85;19.52;;;;;;;-146.27;85.07;80966.22;5037450;28;20022;-68
2023/09/12 02:58:49;;;;;;;31.05;18.25;;;;;;;-146.27;85.02;81000.34;5049732;28;20033;-68
2023/09/12 03:01:19;;;;;;;39.10;19.98;;;;;;;-146.27;85.38;80962.22;5049518;28;20073;-70
2023/09/12 03:03:49;;;;;;;37.40;17.58;;;;;;;-146.27;85.21;80942.13;5049039;28;20096;-69
2023/09/12 03:06:15;;;;;;;38.55;19.25;;;;;;;-146.27;85.70;80938.09;5048151;28;20025;-69
2023/09/12 03:08:41;;;;;;;37.95;20.70;;;;;;;-146.27;85.25;80918.03;5042344;28;20029;-69
2023/09/12 03:11:07;;;;;;;42.10;20.50;;;;;;;-146.27;85.56;80889.91;5050848;28;20479;-69
2023/09/12 03:13:33;;;;;;;36.17;18.73;;;;;;;-146.27;85.80;80918.03;5044220;28;20104;-68
2023/09/12 03:15:59;;;;;;;40.53;19.45;;;;;;;-146.27;85.59;80922.03;5048634;28;20099;-70
2023/09/12 03:18:25;;;;;;;47.53;20.23;;;;;;;-146.27;84.81;80881.88;5053255;28;20799;-70
2023/09/12 03:20:50;;;;;;;40.20;20.60;;;;;;;-146.27;84.68;80865.81;5048868;28;20063;-70
2023/09/12 03:23:15;;;;;;;37.55;21.65;;;;;;;-146.27;85.49;80910.00;5059721;28;20547;-69
2023/09/12 03:25:41;;;;;;;32.28;18.10;;;;;;;-146.27;85.42;80932.09;5042224;28;20166;-70
2023/09/12 03:28:07;;;;;;;40.60;20.33;;;;;;;-146.27;86.03;80922.03;5049266;28;20029;-69
2023/09/12 03:30:35;;;;;;;42.13;20.80;;;;;;;-146.27;84.77;80903.97;5047741;28;20457;-69
2023/09/12 03:33:00;;;;;;;39.15;20.33;;;;;;;-146.27;85.40;80887.91;5046571;28;20104;-70
2023/09/12 03:35:26;;;;;;;44.83;21.10;;;;;;;-146.27;85.29;80829.69;5049053;28;20111;-70
2023/09/12 03:37:51;;;;;;;34.83;19.77;;;;;;;-146.27;84.88;80889.91;5048324;28;20036;-70
2023/09/12 03:40:17;;;;;;;45.65;20.75;;;;;;;-146.27;85.26;80905.97;5047155;28;20025;-70
2023/09/12 03:42:42;;;;;;;41.42;19.63;;;;;;;-146.27;86.56;80899.97;5050251;28;20036;-70
2023/09/12 03:45:08;;;;;;;33.53;19.15;;;;;;;-146.27;85.56;80930.06;5049290;28;20033;-70
2023/09/12 03:47:33;;;;;;;45.67;21.98;;;;;;;-146.27;86.30;80914.00;5047985;28;20499;-70
2023/09/12 03:49:59;;;;;;;49.75;22.77;;;;;;;-146.27;86.16;80873.84;5048238;28;20563;-70
2023/09/12 03:52:24;;;;;;;38.80;21.48;;;;;;;-146.27;86.21;80881.88;5066831;28;20030;-70
2023/09/12 03:54:50;;;;;;;40.90;21.13;;;;;;;-146.27;85.73;80845.75;5046686;28;20075;-70
2023/09/12 03:57:16;;;;;;;41.15;21.30;;;;;;;-146.27;85.63;80885.91;5035677;28;20370;-69
2023/09/12 03:59:41;;;;;;;42.15;21.55;;;;;;;-146.27;85.24;80869.84;5033804;28;20048;-70
2023/09/12 04:02:06;;;;;;;35.40;20.20;;;;;;;-146.27;85.13;80847.75;5043331;28;20094;-70
2023/09/12 04:04:32;;;;;;;40.88;22.40;;;;;;;-146.27;86.37;80861.81;5043400;28;20033;-70
2023/09/12 04:06:57;;;;;;;38.47;21.35;;;;;;;-146.27;86.21;80901.97;5048776;28;20113;-69
2023/09/12 04:09:23;;;;;;;42.80;22.88;;;;;;;-146.27;86.64;80861.81;5046446;28;20041;-69
2023/09/12 04:11:48;;;;;;;46.65;21.92;;;;;;;-146.27;86.08;80845.75;5043280;28;20029;-69
2023/09/12 04:14:16;;;;;;;40.38;19.85;;;;;;;-146.27;85.97;80835.69;5044673;28;20024;-70
2023/09/12 04:16:42;;;;;;;39.85;20.60;;;;;;;-146.27;85.89;80839.72;5039272;28;20041;-70
2023/09/12 04:19:07;;;;;;;36.03;18.75;;;;;;;-146.27;85.66;80837.72;5045576;28;20020;-70
2023/09/12 04:21:32;;;;;;;38.90;20.25;;;;;;;-146.27;86.21;80869.84;5045291;28;20403;-68
2023/09/12 04:23:58;;;;;;;41.90;21.25;;;;;;;-146.27;86.19;80851.75;5042590;28;20040;-70
2023/09/12 04:26:23;;;;;;;46.58;22.33;;;;;;;-146.27;86.47;80869.84;5037034;28;20096;-69
2023/09/12 04:28:48;;;;;;;49.15;22.73;;;;;;;-146.27;86.48;80837.72;5041682;28;20021;-69
2023/09/12 04:31:14;;;;;;;47.13;23.05;;;;;;;-146.27;85.70;80821.63;5048083;28;20112;-70
2023/09/12 04:33:39;;;;;;;42.42;22.02;;;;;;;-146.27;85.84;80819.63;5047663;28;20025;-69
2023/09/12 04:36:05;;;;;;;42.92;21.42;;;;;;;-146.27;86.20;80793.53;5046985;28;20039;-69
2023/09/12 04:38:30;;;;;;;46.28;23.35;;;;;;;-146.27;85.80;80807.59;5048284;28;20055;-69
2023/09/12 04:40:57;;;;;;;46.08;22.38;;;;;;;-146.27;86.02;80821.63;5050532;28;20051;-69
2023/09/12 04:43:23;;;;;;;53.00;24.60;;;;;;;-146.27;86.18;80801.56;5052294;28;20075;-69
2023/09/12 04:45:48;;;;;;;49.90;23.27;;;;;;;-146.27;86.23;80821.63;5053598;28;20601;-69
2023/09/12 04:48:14;;;;;;;44.15;22.60;;;;;;;-146.27;86.57;80773.44;5039499;28;20061;-69
2023/09/12 04:50:43;;;;;;;43.33;22.58;;;;;;;-146.27;86.53;80765.41;5046467;28;20056;-69
2023/09/12 04:53:09;;;;;;;40.95;21.25;;;;;;;-146.27;86.03;80785.50;5052207;28;20025;-69
2023/09/12 04:55:38;;;;;;;41.63;22.98;;;;;;;-146.27;86.14;80777.47;5048846;28;20438;-68
2023/09/12 04:58:04;;;;;;;43.10;22.33;;;;;;;-146.27;86.10;80781.47;5043866;28;20029;-68
2023/09/12 05:00:30;;;;;;;49.78;24.50;;;;;;;-146.27;86.73;80749.34;5048147;28;20024;-71
2023/09/12 05:02:55;;;;;;;54.35;23.88;;;;;;;-146.27;86.54;80747.34;5043656;28;20033;-69
2023/09/12 05:05:21;;;;;;;48.92;24.63;;;;;;;-146.27;86.75;80785.50;5047328;28;20432;-69
2023/09/12 05:07:46;;;;;;;45.13;22.40;;;;;;;-146.27;86.24;80729.28;5035864;28;20163;-69
2023/09/12 05:10:12;;;;;;;50.78;22.88;;;;;;;-146.27;86.50;80769.44;5041192;28;20025;-69
2023/09/12 05:12:37;;;;;;;42.80;22.05;;;;;;;-146.27;86.17;80723.25;5047610;28;20454;-70
2023/09/12 05:15:03;;;;;;;44.88;22.13;;;;;;;-146.27;86.96;80773.44;5042833;28;20034;-69
2023/09/12 05:17:28;;;;;;;42.30;21.40;;;;;;;-146.27;86.81;80737.31;5040262;28;20532;-68
2023/09/12 05:19:54;;;;;;;47.42;23.10;;;;;;;-146.27;87.05;80737.31;5046568;28;20025;-70
2023/09/12 05:22:20;;;;;;;49.17;24.17;;;;;;;-146.27;86.88;80721.25;5040633;28;20028;-69
2023/09/12 05:24:45;;;;;;;42.40;20.70;;;;;;;-146.27;86.61;80757.38;5044196;28;20025;-70
2023/09/12 05:27:11;;;;;;;44.95;21.70;;;;;;;-146.27;86.77;80731.28;5049342;28;20044;-70
2023/09/12 05:29:37;;;;;;;46.10;22.13;;;;;;;-146.27;86.62;80675.06;5041197;28;20060;-70
2023/09/12 05:32:03;;;;;;;43.20;21.90;;;;;;;-146.27;87.49;80743.34;5044100;28;20029;-70
2023/09/12 05:34:28;;;;;;;44.95;23.25;;;;;;;-146.27;86.97;80725.25;5040351;28;20025;-70
2023/09/12 05:36:54;;;;;;;54.10;24.90;;;;;;;-146.27;87.32;80693.13;5042255;28;20412;-68
2023/09/12 05:39:19;;;;;;;51.70;24.83;;;;;;;-146.27;87.21;80677.06;5038933;28;20489;-69
2023/09/12 05:41:44;;;;;;;56.05;24.55;;;;;;;-146.27;87.59;80701.16;5050227;28;20032;-67
2023/09/12 05:44:12;;;;;;;48.20;23.45;;;;;;;-146.27;87.22;80713.22;5047453;28;20057;-68
2023/09/12 05:46:38;;;;;;;48.28;23.45;;;;;;;-146.27;86.89;80717.22;5046391;28;20028;-68
2023/09/12 05:49:03;;;;;;;49.33;23.33;;;;;;;-146.27;86.71;80709.19;5050954;28;20477;-69
2023/09/12 05:51:29;;;;;;;50.95;22.80;;;;;;;-146.27;86.73;80683.09;5047219;28;20064;-68
2023/09/12 05:53:54;;;;;;;50.65;23.60;;;;;;;-146.27;87.18;80669.03;5050583;28;20036;-67
2023/09/12 05:56:20;;;;;;;48.42;22.40;;;;;;;-146.27;87.12;80723.25;5053192;28;20136;-68
2023/09/12 05:58:46;;;;;;;47.28;21.70;;;;;;;-146.27;87.29;80681.09;5043699;28;20025;-68
2023/09/12 06:01:11;;;;;;;51.30;23.67;;;;;;;-146.27;87.73;80731.28;5036615;28;20024;-67
2023/09/12 06:03:37;;;;;;;55.53;24.20;;;;;;;-146.27;87.62;80713.22;5049971;28;20036;-67
2023/09/12 06:06:02;;;;;;;56.17;24.13;;;;;;;-146.27;87.97;80667.03;5049135;28;20043;-68
2023/09/12 06:08:27;;;;;;;50.13;23.45;;;;;;;-146.27;87.22;80701.16;5043157;28;20036;-70
2023/09/12 06:10:54;;;;;;;50.90;23.75;;;;;;;-146.27;87.29;80711.19;5047799;28;20029;-68
2023/09/12 06:13:19;;;;;;;59.03;23.90;;;;;;;-146.27;87.83;80673.06;5031197;28;20048;-68
2023/09/12 06:15:45;;;;;;;48.28;23.70;;;;;;;-146.27;86.83;80644.94;5047266;28;20076;-67
2023/09/12 06:18:10;;;;;;;51.78;23.45;;;;;;;-146.27;87.18;80665.03;5047453;28;20511;-67
2023/09/12 06:20:36;;;;;;;48.45;23.40;;;;;;;-146.27;86.59;80683.09;5040793;28;20454;-67
2023/09/12 06:23:03;;;;;;;53.15;22.80;;;;;;;-146.27;87.32;80683.09;5045525;28;20024;-67
2023/09/12 06:25:29;;;;;;;51.40;24.77;;;;;;;-146.27;87.23;80661.00;5038276;28;20074;-67
2023/09/12 06:27:54;;;;;;;59.88;25.45;;;;;;;-146.27;87.00;80616.84;5043138;28;20032;-67
2023/09/12 06:30:20;;;;;;;62.28;27.30;;;;;;;-146.27;86.48;80616.84;5047002;28;20021;-67
2023/09/12 06:32:45;;;;;;;61.92;26.85;;;;;;;-146.27;86.63;80602.78;5046427;28;20040;-66
2023/09/12 06:35:11;;;;;;;65.65;28.42;;;;;;;-146.27;86.58;80612.81;5036840;28;20059;-66
2023/09/12 06:37:38;;;;;;;62.88;28.25;;;;;;;-146.27;86.54;80626.88;5032760;28;20078;-68
2023/09/12 06:40:05;;;;;;;68.93;28.25;;;;;;;-146.27;86.85;80564.63;5043725;28;20101;-66
2023/09/12 06:42:30;;;;;;;67.18;29.15;;;;;;;-146.27;87.08;80578.69;5041040;28;20679;-69
2023/09/12 06:44:55;;;;;;;67.20;28.55;;;;;;;-146.27;86.82;80524.47;5035163;28;20025;-67
2023/09/12 06:47:21;;;;;;;75.60;30.42;;;;;;;-146.27;86.68;80546.56;5031909;28;20478;-68
2023/09/12 06:49:46;;;;;;;65.78;28.95;;;;;;;-146.27;86.59;80550.56;5032345;28;20032;-68
2023/09/12 06:52:12;;;;;;;71.43;29.92;;;;;;;-146.27;86.54;80542.53;5029203;28;20144;-68
2023/09/12 06:54:37;;;;;;;63.08;28.55;;;;;;;-146.27;86.67;80578.69;5030633;28;20041;-67
2023/09/12 06:57:03;;;;;;;77.35;31.05;;;;;;;-146.27;87.27;80572.66;5031937;28;20485;-67
2023/09/12 06:59:28;;;;;;;80.55;32.60;;;;;;;-146.27;87.51;80572.66;5030095;28;20469;-67
2023/09/12 07:01:53;;;;;;;69.65;31.52;;;;;;;-146.27;87.16;80516.44;5031190;28;20028;-67
2023/09/12 07:04:19;;;;;;;76.25;32.15;;;;;;;-146.27;87.21;80502.38;5031918;28;20044;-67
2023/09/12 07:06:44;;;;;;;68.75;30.75;;;;;;;-146.27;87.09;80472.25;5031071;28;20025;-67
2023/09/12 07:09:11;;;;;;;68.90;30.05;;;;;;;-146.27;86.76;80452.19;5035074;28;20052;-67
2023/09/12 07:11:37;;;;;;;63.75;29.65;;;;;;;-146.27;86.95;80436.13;5047216;28;20108;-67
2023/09/12 07:14:03;;;;;;;71.07;29.90;;;;;;;-146.27;86.29;80448.16;5034310;28;20108;-67
2023/09/12 07:16:30;;;;;;;66.07;29.75;;;;;;;-146.27;86.02;80456.19;5042582;28;20021;-67
2023/09/12 07:18:55;;;;;;;58.53;28.73;;;;;;;-146.27;86.50;80416.03;5031169;28;20028;-68
2023/09/12 07:21:21;;;;;;;59.80;27.60;;;;;;;-146.27;85.34;80440.13;5039642;28;20017;-68
2023/09/12 07:23:48;;;;;;;59.80;27.52;;;;;;;-146.27;84.96;80452.19;5032627;28;20052;-68
2023/09/12 07:26:14;;;;;;;57.13;27.25;;;;;;;-146.27;85.24;80408.00;5030209;28;20033;-68
2023/09/12 07:28:39;;;;;;;58.35;28.15;;;;;;;-146.27;85.23;80416.03;5031122;28;20446;-68
2023/09/12 07:31:05;;;;;;;52.13;25.45;;;;;;;-146.27;84.75;80383.91;5030975;28;20700;-68
2023/09/12 07:33:30;;;;;;;48.00;25.88;;;;;;;-146.27;84.67;80408.00;5063607;28;20035;-68
2023/09/12 07:35:55;;;;;;;56.53;25.60;;;;;;;-146.27;84.48;80540.53;5032484;28;20405;-68
2023/09/12 07:38:21;;;;;;;55.92;28.10;;;;;;;-146.27;85.03;80420.06;5031119;28;20036;-67
2023/09/12 07:40:47;;;;;;;51.10;26.75;;;;;;;-146.27;84.89;80359.81;5031549;28;20437;-68
2023/09/12 07:43:12;;;;;;;56.00;27.13;;;;;;;-146.27;84.83;80319.66;5035145;28;20104;-67
2023/09/12 07:45:37;;;;;;;52.85;25.77;;;;;;;-146.27;85.09;80263.44;5031442;28;20033;-68
2023/09/12 07:48:08;;;;;;;52.80;27.42;;;;;;;-146.27;84.61;80271.47;5040196;28;20033;-67
2023/09/12 07:50:34;;;;;;;53.92;26.35;;;;;;;-146.27;84.23;80271.47;5043983;28;20028;-68
2023/09/12 07:52:59;;;;;;;55.75;28.75;;;;;;;-146.27;84.58;80247.38;5033957;28;20029;-68
2023/09/12 07:55:25;;;;;;;57.03;27.42;;;;;;;-146.27;83.96;80205.22;5035801;28;20060;-68
2023/09/12 07:57:50;;;;;;;51.25;26.70;;;;;;;-146.27;84.31;80179.13;5030408;28;20044;-68
2023/09/12 08:00:16;;;;;;;48.22;25.73;;;;;;;-146.27;83.71;80159.06;5030611;28;20049;-68
2023/09/12 08:02:42;;;;;;;45.70;26.30;;;;;;;-146.27;82.72;80106.84;5045579;28;20026;-68
2023/09/12 08:05:08;;;;;;;44.60;25.75;;;;;;;-146.27;81.30;80167.09;5030254;28;20040;-68
2023/09/12 08:07:35;;;;;;;43.50;24.10;;;;;;;-146.27;81.19;80213.25;5030332;28;20497;-69
2023/09/12 08:10:00;;;;;;;52.70;27.00;;;;;;;-146.27;80.89;80167.09;5030756;28;20025;-66
2023/09/12 08:12:27;;;;;;;49.13;24.65;;;;;;;-146.27;80.37;80173.09;5030197;28;20061;-69
2023/09/12 08:14:53;;;;;;;41.50;24.15;;;;;;;-146.27;80.41;80157.03;5030827;28;20049;-67
2023/09/12 08:17:19;;;;;;;37.25;22.08;;;;;;;-146.27;79.86;80124.91;5030214;28;20569;-66
2023/09/12 08:19:45;;;;;;;40.67;25.02;;;;;;;-146.27;79.82;80161.06;5031491;28;20040;-68
2023/09/12 08:22:12;;;;;;;39.83;23.65;;;;;;;-146.27;80.08;79990.41;5035116;28;20496;-69
2023/09/12 08:24:38;;;;;;;45.00;24.95;;;;;;;-146.27;79.87;80022.53;5030023;28;20056;-69
2023/09/12 08:27:04;;;;;;;48.17;24.98;;;;;;;-146.27;79.35;79910.09;5030108;28;20478;-68
2023/09/12 08:29:30;;;;;;;46.55;26.17;;;;;;;-146.27;79.33;79892.03;5030082;28;20033;-68
2023/09/12 08:31:56;;;;;;;48.38;26.13;;;;;;;-146.27;79.80;79946.25;5030183;28;20561;-68
2023/09/12 08:34:21;;;;;;;44.13;24.90;;;;;;;-146.27;79.72;79988.41;5031193;28;20021;-68
2023/09/12 08:36:47;;;;;;;46.25;24.40;;;;;;;-146.27;79.23;79934.19;5029679;28;20555;-69
2023/09/12 08:39:14;;;;;;;38.67;23.45;;;;;;;-146.27;78.92;79841.84;5029420;28;20029;-68
2023/09/12 08:41:40;;;;;;;35.83;23.52;;;;;;;-146.27;78.38;79986.41;5038230;28;20111;-68
2023/09/12 08:44:07;;;;;;;39.70;22.38;;;;;;;-146.27;77.92;79861.94;5029809;28;20037;-68
2023/09/12 08:46:32;;;;;;;31.90;19.80;;;;;;;-146.27;77.43;79880.00;5029989;28;20569;-68
2023/09/12 08:48:58;;;;;;;40.30;21.98;;;;;;;-146.27;76.89;79877.97;5029639;28;20124;-68
2023/09/12 08:51:23;;;;;;;33.42;20.88;;;;;;;-146.27;77.59;79894.03;5029716;28;20029;-67
2023/09/12 08:53:52;;;;;;;36.63;22.98;;;;;;;-146.27;77.59;79833.81;5029714;28;20603;-67
2023/09/12 08:56:18;;;;;;;29.88;19.73;;;;;;;-146.27;77.77;79779.63;5030460;28;20033;-67
2023/09/12 08:58:45;;;;;;;31.77;18.70;;;;;;;-146.27;77.34;79695.31;5035739;28;20033;-67
2023/09/12 09:01:13;;;;;;;27.30;16.02;;;;;;;-146.27;76.55;79613.00;5029697;28;20051;-68
2023/09/12 09:03:42;;;;;;;29.00;16.80;;;;;;;-146.27;76.44;79538.72;5031624;28;20076;-67
2023/09/12 09:06:09;;;;;;;27.45;18.17;;;;;;;-146.27;75.84;79484.53;5029815;28;20551;-69
2023/09/12 09:08:35;;;;;;;29.65;17.35;;;;;;;-146.27;76.06;79392.19;5029556;28;20030;-69
2023/09/12 09:11:03;;;;;;;26.88;16.50;;;;;;;-146.27;75.86;79416.28;5029604;28;20040;-68
2023/09/12 09:13:29;;;;;;;27.42;19.02;;;;;;;-146.27;73.97;79398.22;5029633;28;20025;-68
2023/09/12 09:16:09;;;;;;;26.73;17.92;;;;;;;-146.27;76.50;79392.19;5032093;28;20049;-69
2023/09/12 09:18:54;;;;;;;28.08;17.35;;;;;;;-146.27;75.28;79372.13;5033040;28;20049;-68
2023/09/12 09:21:25;;;;;;;25.20;16.70;;;;;;;-146.27;75.43;79293.84;5041226;28;20025;-69
2023/09/12 09:23:52;;;;;;;26.02;16.48;;;;;;;-146.27;73.92;79295.84;5033323;28;20438;-69
2023/09/12 09:26:17;;;;;;;28.98;17.77;;;;;;;-146.27;73.62;79311.91;5032981;28;20121;-69
2023/09/12 09:28:43;;;;;;;29.58;18.05;;;;;;;-146.27;74.79;79335.97;5033269;28;20484;-70
2023/09/12 09:31:13;;;;;;;24.08;15.23;;;;;;;-146.27;73.89;79303.88;5032539;28;20513;-70
2023/09/12 09:33:48;;;;;;;26.20;15.65;;;;;;;-146.27;72.21;79307.88;5045896;28;20397;-70
2023/09/12 09:36:14;;;;;;;28.05;15.27;;;;;;;-146.27;70.86;79263.72;5033533;28;20029;-69
2023/09/12 09:38:40;;;;;;;22.70;13.90;;;;;;;-146.27;71.47;79229.59;5032806;28;20489;-69
2023/09/12 09:41:06;;;;;;;21.08;14.32;;;;;;;-146.27;70.65;79295.84;5035967;28;20104;-69
2023/09/12 09:43:33;;;;;;;28.65;14.50;;;;;;;-146.27;70.72;79319.91;5035434;28;20060;-69
2023/09/12 09:45:59;;;;;;;23.10;14.48;;;;;;;-146.27;70.50;79388.16;5032561;28;20503;-69
2023/09/12 09:48:28;;;;;;;22.35;12.38;;;;;;;-146.27;70.27;79335.97;5032637;28;20112;-69
2023/09/12 09:51:01;;;;;;;26.70;14.63;;;;;;;-146.27;70.63;79422.28;5032408;28;20030;-68
2023/09/12 09:53:28;;;;;;;22.83;14.13;;;;;;;-146.27;71.44;79446.38;5032834;28;20060;-68
2023/09/12 09:56:10;;;;;;;20.42;12.90;;;;;;;-146.27;70.86;79412.25;5032435;28;20040;-69
2023/09/12 09:58:47;;;;;;;24.95;15.32;;;;;;;-146.27;71.38;79388.16;5031418;28;20029;-69
2023/09/12 10:01:16;;;;;;;19.65;14.02;;;;;;;-146.27;71.83;79271.75;5038760;28;20021;-69
2023/09/12 10:03:44;;;;;;;21.02;13.82;;;;;;;-146.27;73.79;79325.94;5033743;28;20036;-69
2023/09/12 10:06:10;;;;;;;20.55;14.35;;;;;;;-146.27;73.23;79219.56;5032413;28;20056;-69
2023/09/12 10:08:38;;;;;;;24.92;13.65;;;;;;;-146.27;72.58;79227.59;5032262;28;20104;-69
2023/09/12 10:11:04;;;;;;;22.35;14.55;;;;;;;-146.27;71.58;79221.56;5037404;28;20028;-69
2023/09/12 10:13:33;;;;;;;20.23;13.45;;;;;;;-146.27;71.01;79203.50;5033408;28;20025;-69
2023/09/12 10:16:01;;;;;;;21.08;12.95;;;;;;;-146.27;71.16;79179.41;5031708;28;20114;-68
2023/09/12 10:18:28;;;;;;;16.95;12.57;;;;;;;-146.27;70.79;79203.50;5049419;28;20029;-68
2023/09/12 10:21:10;;;;;;;20.10;12.45;;;;;;;-146.27;69.88;79221.56;5031937;28;20021;-68
2023/09/12 10:23:44;;;;;;;17.83;9.82;;;;;;;-146.27;68.44;79263.72;5032123;28;20056;-68
2023/09/12 10:26:13;;;;;;;12.93;9.00;;;;;;;-146.27;68.25;79211.53;5031915;28;20105;-68
2023/09/12 10:28:41;;;;;;;15.02;9.38;;;;;;;-146.27;68.93;79171.38;5031965;28;20053;-68
2023/09/12 10:31:08;;;;;;;17.45;10.80;;;;;;;-146.27;70.10;79179.41;5033781;28;20112;-67
2023/09/12 10:33:34;;;;;;;20.35;12.30;;;;;;;-146.27;73.48;79189.44;5044534;28;20139;-68
2023/09/12 10:36:03;;;;;;;21.25;12.43;;;;;;;-146.27;72.73;79195.47;5051192;28;20044;-68
2023/09/12 10:38:32;;;;;;;17.38;12.77;;;;;;;-146.27;71.38;79223.56;5050179;28;20028;-68
2023/09/12 10:41:00;;;;;;;20.90;13.73;;;;;;;-146.27;72.76;79219.56;5044863;28;20104;-68
2023/09/12 10:43:26;;;;;;;25.05;16.15;;;;;;;-146.27;73.37;79237.63;5030526;28;20021;-67
2023/09/12 10:45:52;;;;;;;24.63;17.92;;;;;;;-146.27;74.36;79259.72;5031411;28;20033;-68
2023/09/12 10:48:18;;;;;;;24.67;16.05;;;;;;;-146.27;74.30;79295.84;5031363;28;20064;-68
2023/09/12 10:50:44;;;;;;;25.63;17.00;;;;;;;-146.27;75.75;79311.91;5045515;28;20658;-68
2023/09/12 10:53:15;;;;;;;33.38;19.65;;;;;;;-146.27;76.25;79307.88;5032412;28;20873;-68
2023/09/12 10:55:58;;;;;;;21.90;15.77;;;;;;;-146.27;76.21;79303.88;5034937;28;20119;-68
2023/09/12 10:58:24;;;;;;;23.00;16.05;;;;;;;-146.27;75.81;79283.78;5037248;28;20029;-68